Home

PKWA Terminal Aerodrome Forecast (TAF)small logo


TAF provided by NWS Guam
2015/09/04 18:30
TAF PKWA 041724Z 0418/0518 26009KT P6SM VCSH SCT016 SCT035 BKN140 
      TEMPO 0419/0423 2SM SHRA BKN015 OVC050

      



Site Map | Contact Us | Copyright © 2007 Atmospheric Technology Services Company. All rights reserved.